sensor_id;sensor_type;location;lat;lon;timestamp;pressure;altitude;pressure_sealevel;temperature;humidity
21449;BME280;10885;52.830;13.788;2023-08-31T04:39:17;100233.88;;;14.22;96.44
21449;BME280;10885;52.830;13.788;2023-08-31T04:44:20;100232.88;;;14.19;96.20
21449;BME280;10885;52.830;13.788;2023-08-31T04:49:23;100242.91;;;14.12;95.65
21449;BME280;10885;52.830;13.788;2023-08-31T04:54:25;100242.19;;;14.15;95.97
21449;BME280;10885;52.830;13.788;2023-08-31T04:59:28;100248.13;;;14.14;96.01
21449;BME280;10885;52.830;13.788;2023-08-31T05:04:31;100258.59;;;14.19;96.33
21449;BME280;10885;52.830;13.788;2023-08-31T05:09:34;100257.03;;;14.22;95.65
21449;BME280;10885;52.830;13.788;2023-08-31T05:14:37;100259.75;;;14.25;95.92
21449;BME280;10885;52.830;13.788;2023-08-31T05:19:42;100252.06;;;14.27;95.66
21449;BME280;10885;52.830;13.788;2023-08-31T05:24:44;100251.44;;;14.31;95.49
21449;BME280;10885;52.830;13.788;2023-08-31T05:29:47;100256.78;;;14.36;95.58
21449;BME280;10885;52.830;13.788;2023-08-31T05:34:50;100252.44;;;14.35;95.40
21449;BME280;10885;52.830;13.788;2023-08-31T05:39:53;100265.19;;;14.31;95.46
21449;BME280;10885;52.830;13.788;2023-08-31T05:44:56;100270.91;;;14.26;96.25
21449;BME280;10885;52.830;13.788;2023-08-31T05:49:58;100278.00;;;14.30;96.27
21449;BME280;10885;52.830;13.788;2023-08-31T05:55:01;100281.44;;;14.51;95.57
21449;BME280;10885;52.830;13.788;2023-08-31T06:00:05;100277.56;;;14.84;94.69
21449;BME280;10885;52.830;13.788;2023-08-31T06:05:29;100292.88;;;15.02;93.56
21449;BME280;10885;52.830;13.788;2023-08-31T06:10:33;100299.97;;;15.07;92.50
21449;BME280;10885;52.830;13.788;2023-08-31T06:15:36;100307.56;;;15.04;92.89
21449;BME280;10885;52.830;13.788;2023-08-31T06:20:39;100313.47;;;15.02;92.98
21449;BME280;10885;52.830;13.788;2023-08-31T06:25:42;100313.63;;;15.05;93.31
21449;BME280;10885;52.830;13.788;2023-08-31T06:30:44;100310.97;;;15.03;92.96
21449;BME280;10885;52.830;13.788;2023-08-31T06:35:49;100313.63;;;15.05;93.03
21449;BME280;10885;52.830;13.788;2023-08-31T06:40:54;100313.22;;;15.17;93.29
21449;BME280;10885;52.830;13.788;2023-08-31T06:46:01;100314.41;;;15.26;91.39
21449;BME280;10885;52.830;13.788;2023-08-31T06:51:23;100323.34;;;15.35;91.01
21449;BME280;10885;52.830;13.788;2023-08-31T11:25:53;100432.66;;;20.80;53.53
21449;BME280;10885;52.830;13.788;2023-08-31T11:30:56;100442.38;;;20.00;56.50
21449;BME280;10885;52.830;13.788;2023-08-31T11:35:59;100456.44;;;19.34;60.54
21449;BME280;10885;52.830;13.788;2023-08-31T11:41:01;100461.63;;;18.66;61.08
21449;BME280;10885;52.830;13.788;2023-08-31T11:46:04;100449.84;;;18.45;63.35
21449;BME280;10885;52.830;13.788;2023-08-31T11:51:08;100436.25;;;18.22;63.57
21449;BME280;10885;52.830;13.788;2023-08-31T11:56:11;100444.06;;;17.94;66.14
21449;BME280;10885;52.830;13.788;2023-08-31T12:01:21;100443.31;;;18.28;66.59
21449;BME280;10885;52.830;13.788;2023-08-31T12:06:23;100442.06;;;19.12;63.81
21449;BME280;10885;52.830;13.788;2023-08-31T12:11:26;100444.69;;;19.86;60.34
21449;BME280;10885;52.830;13.788;2023-08-31T12:16:35;100435.16;;;20.75;59.11
21449;BME280;10885;52.830;13.788;2023-08-31T12:21:39;100436.34;;;21.51;53.15
21449;BME280;10885;52.830;13.788;2023-08-31T12:26:42;100433.69;;;22.09;49.48
21449;BME280;10885;52.830;13.788;2023-08-31T12:31:44;100432.84;;;22.91;45.20
21449;BME280;10885;52.830;13.788;2023-08-31T12:36:47;100444.66;;;23.56;42.62
21449;BME280;10885;52.830;13.788;2023-08-31T12:41:50;100445.47;;;23.47;40.57
21449;BME280;10885;52.830;13.788;2023-08-31T12:46:52;100439.53;;;22.61;42.70
21449;BME280;10885;52.830;13.788;2023-08-31T12:51:55;100451.00;;;21.42;45.18
21449;BME280;10885;52.830;13.788;2023-08-31T12:56:58;100460.13;;;20.67;48.52
21449;BME280;10885;52.830;13.788;2023-08-31T13:02:01;100462.47;;;20.09;50.51
21449;BME280;10885;52.830;13.788;2023-08-31T13:07:06;100457.13;;;20.03;51.43
21449;BME280;10885;52.830;13.788;2023-08-31T13:12:08;100450.53;;;21.12;50.21
21449;BME280;10885;52.830;13.788;2023-08-31T13:17:11;100463.59;;;22.40;47.56
21449;BME280;10885;52.830;13.788;2023-08-31T13:22:14;100470.47;;;23.19;43.98
21449;BME280;10885;52.830;13.788;2023-08-31T13:27:18;100478.16;;;22.21;43.19
21449;BME280;10885;52.830;13.788;2023-08-31T13:32:21;100473.94;;;21.12;46.25
21449;BME280;10885;52.830;13.788;2023-08-31T13:37:24;100489.84;;;20.36;53.28
21449;BME280;10885;52.830;13.788;2023-08-31T13:42:33;100483.09;;;19.27;59.48
21449;BME280;10885;52.830;13.788;2023-08-31T13:47:36;100485.19;;;18.43;65.39
21449;BME280;10885;52.830;13.788;2023-08-31T13:52:39;100473.06;;;17.82;66.70
21449;BME280;10885;52.830;13.788;2023-08-31T13:57:42;100471.69;;;17.39;72.17
21449;BME280;10885;52.830;13.788;2023-08-31T14:02:45;100474.25;;;17.12;71.80
21449;BME280;10885;52.830;13.788;2023-08-31T14:07:48;100457.47;;;17.53;72.37
21449;BME280;10885;52.830;13.788;2023-08-31T14:12:50;100466.03;;;18.70;68.92
21449;BME280;10885;52.830;13.788;2023-08-31T14:17:53;100474.22;;;19.55;63.12
21449;BME280;10885;52.830;13.788;2023-08-31T14:22:57;100483.69;;;19.53;62.69
21449;BME280;10885;52.830;13.788;2023-08-31T14:28:00;100485.84;;;19.00;65.87
21449;BME280;10885;52.830;13.788;2023-08-31T14:33:03;100476.63;;;18.46;68.14
21449;BME280;10885;52.830;13.788;2023-08-31T14:38:06;100474.78;;;18.12;72.00
21449;BME280;10885;52.830;13.788;2023-08-31T14:43:08;100460.34;;;17.89;71.55
21449;BME280;10885;52.830;13.788;2023-08-31T14:48:11;100466.78;;;17.75;72.10
21449;BME280;10885;52.830;13.788;2023-08-31T14:53:14;100468.72;;;17.54;75.40
21449;BME280;10885;52.830;13.788;2023-08-31T14:58:18;100521.47;;;17.32;78.56
21449;BME280;10885;52.830;13.788;2023-08-31T15:03:21;100626.63;;;16.83;78.00
21449;BME280;10885;52.830;13.788;2023-08-31T15:08:38;100637.31;;;15.01;75.67
21449;BME280;10885;52.830;13.788;2023-08-31T15:13:40;100617.09;;;13.98;78.13
21449;BME280;10885;52.830;13.788;2023-08-31T15:18:43;100606.31;;;13.53;82.29
21449;BME280;10885;52.830;13.788;2023-08-31T15:23:47;100586.53;;;13.34;83.98
21449;BME280;10885;52.830;13.788;2023-08-31T15:28:51;100564.19;;;13.33;84.69
21449;BME280;10885;52.830;13.788;2023-08-31T15:33:53;100554.81;;;13.33;84.49
21449;BME280;10885;52.830;13.788;2023-08-31T15:38:56;100563.03;;;13.44;84.59
21449;BME280;10885;52.830;13.788;2023-08-31T15:43:59;100550.03;;;13.59;84.73
21449;BME280;10885;52.830;13.788;2023-08-31T15:49:02;100559.47;;;13.77;85.70
21449;BME280;10885;52.830;13.788;2023-08-31T15:54:05;100551.88;;;14.16;85.41
21449;BME280;10885;52.830;13.788;2023-08-31T15:59:08;100558.94;;;14.20;84.51
21449;BME280;10885;52.830;13.788;2023-08-31T16:04:10;100562.16;;;14.16;85.62
21449;BME280;10885;52.830;13.788;2023-08-31T16:09:13;100565.97;;;14.24;84.73
21449;BME280;10885;52.830;13.788;2023-08-31T16:14:16;100561.41;;;14.36;85.43
21449;BME280;10885;52.830;13.788;2023-08-31T16:19:18;100553.72;;;14.56;86.34
21449;BME280;10885;52.830;13.788;2023-08-31T16:24:22;100557.78;;;14.70;86.95
21449;BME280;10885;52.830;13.788;2023-08-31T16:29:25;100552.97;;;14.78;84.82
21449;BME280;10885;52.830;13.788;2023-08-31T16:34:28;100555.28;;;14.71;85.15
21449;BME280;10885;52.830;13.788;2023-08-31T16:39:33;100548.69;;;14.59;85.38
21449;BME280;10885;52.830;13.788;2023-08-31T16:44:35;100558.09;;;14.39;86.40
21449;BME280;10885;52.830;13.788;2023-08-31T16:49:38;100553.09;;;14.24;86.33
21449;BME280;10885;52.830;13.788;2023-08-31T16:54:43;100550.56;;;14.06;85.96
21449;BME280;10885;52.830;13.788;2023-08-31T16:59:46;100549.63;;;13.86;86.81
21449;BME280;10885;52.830;13.788;2023-08-31T17:04:48;100559.53;;;13.78;88.69
21449;BME280;10885;52.830;13.788;2023-08-31T17:09:54;100567.09;;;13.75;89.20
21449;BME280;10885;52.830;13.788;2023-08-31T17:14:58;100569.47;;;13.70;90.17
21449;BME280;10885;52.830;13.788;2023-08-31T17:20:01;100568.03;;;13.59;91.14
21449;BME280;10885;52.830;13.788;2023-08-31T17:25:04;100572.09;;;13.54;90.79
21449;BME280;10885;52.830;13.788;2023-08-31T17:30:07;100562.66;;;13.37;90.66
21449;BME280;10885;52.830;13.788;2023-08-31T17:35:10;100561.97;;;13.23;91.61
21449;BME280;10885;52.830;13.788;2023-08-31T17:40:13;100558.34;;;13.19;91.94
21449;BME280;10885;52.830;13.788;2023-08-31T17:45:16;100548.28;;;13.06;91.99
21449;BME280;10885;52.830;13.788;2023-08-31T17:50:18;100540.09;;;12.97;92.08
21449;BME280;10885;52.830;13.788;2023-08-31T17:55:23;100543.94;;;12.88;92.36
21449;BME280;10885;52.830;13.788;2023-08-31T18:00:25;100553.91;;;12.82;92.87
21449;BME280;10885;52.830;13.788;2023-08-31T18:05:28;100562.31;;;12.80;93.48
21449;BME280;10885;52.830;13.788;2023-08-31T18:10:31;100567.38;;;12.78;93.62
21449;BME280;10885;52.830;13.788;2023-08-31T18:15:34;100571.47;;;12.74;94.00
21449;BME280;10885;52.830;13.788;2023-08-31T18:20:37;100569.63;;;12.72;93.48
21449;BME280;10885;52.830;13.788;2023-08-31T18:25:43;100573.00;;;12.71;93.43
21449;BME280;10885;52.830;13.788;2023-08-31T18:35:58;100572.19;;;12.72;93.37
21449;BME280;10885;52.830;13.788;2023-08-31T18:41:03;100579.97;;;12.73;93.06
21449;BME280;10885;52.830;13.788;2023-08-31T18:46:06;100581.88;;;12.78;92.11
21449;BME280;10885;52.830;13.788;2023-08-31T18:51:09;100586.06;;;12.75;92.27
21449;BME280;10885;52.830;13.788;2023-08-31T18:56:13;100586.69;;;12.71;92.87
21449;BME280;10885;52.830;13.788;2023-08-31T19:01:16;100586.66;;;12.70;92.97
21449;BME280;10885;52.830;13.788;2023-08-31T19:06:18;100596.81;;;12.68;92.67
21449;BME280;10885;52.830;13.788;2023-08-31T19:11:21;100601.56;;;12.61;93.97
21449;BME280;10885;52.830;13.788;2023-08-31T19:16:24;100596.88;;;12.53;93.78
21449;BME280;10885;52.830;13.788;2023-08-31T19:21:27;100584.59;;;12.48;94.41
21449;BME280;10885;52.830;13.788;2023-08-31T19:26:29;100593.66;;;12.41;94.69
21449;BME280;10885;52.830;13.788;2023-08-31T19:31:32;100595.34;;;12.41;94.82
21449;BME280;10885;52.830;13.788;2023-08-31T19:36:35;100599.44;;;12.37;95.01
21449;BME280;10885;52.830;13.788;2023-08-31T19:41:38;100604.22;;;12.31;95.07
21449;BME280;10885;52.830;13.788;2023-08-31T19:46:41;100610.13;;;12.30;94.87
21449;BME280;10885;52.830;13.788;2023-08-31T19:51:45;100616.00;;;12.27;95.09
21449;BME280;10885;52.830;13.788;2023-08-31T19:56:47;100621.75;;;12.23;95.15
21449;BME280;10885;52.830;13.788;2023-08-31T20:01:50;100633.53;;;12.20;95.15
21449;BME280;10885;52.830;13.788;2023-08-31T20:06:53;100639.03;;;12.11;95.54
21449;BME280;10885;52.830;13.788;2023-08-31T20:11:56;100638.06;;;12.09;95.76
21449;BME280;10885;52.830;13.788;2023-08-31T20:16:59;100643.94;;;12.06;96.20
21449;BME280;10885;52.830;13.788;2023-08-31T20:22:01;100651.53;;;12.05;96.17
21449;BME280;10885;52.830;13.788;2023-08-31T20:27:04;100649.13;;;12.08;95.75
21449;BME280;10885;52.830;13.788;2023-08-31T20:32:08;100651.16;;;12.13;95.93
21449;BME280;10885;52.830;13.788;2023-08-31T20:37:10;100652.13;;;12.15;95.39
21449;BME280;10885;52.830;13.788;2023-08-31T20:42:13;100662.28;;;12.14;95.36
21449;BME280;10885;52.830;13.788;2023-08-31T20:47:16;100666.38;;;12.10;95.45
21449;BME280;10885;52.830;13.788;2023-08-31T20:52:21;100669.72;;;12.09;94.78
21449;BME280;10885;52.830;13.788;2023-08-31T20:57:25;100661.88;;;12.06;95.07
21449;BME280;10885;52.830;13.788;2023-08-31T21:02:28;100673.56;;;12.01;94.94
21449;BME280;10885;52.830;13.788;2023-08-31T21:07:30;100676.53;;;11.94;95.24
21449;BME280;10885;52.830;13.788;2023-08-31T21:12:33;100689.94;;;11.88;95.83
21449;BME280;10885;52.830;13.788;2023-08-31T21:17:36;100701.84;;;11.88;95.81
21449;BME280;10885;52.830;13.788;2023-08-31T21:22:40;100704.34;;;11.86;95.59
21449;BME280;10885;52.830;13.788;2023-08-31T21:27:42;100700.00;;;11.85;96.20
21449;BME280;10885;52.830;13.788;2023-08-31T21:32:45;100695.75;;;11.86;95.94
21449;BME280;10885;52.830;13.788;2023-08-31T21:37:48;100700.25;;;11.90;96.45
21449;BME280;10885;52.830;13.788;2023-08-31T21:42:51;100696.09;;;11.92;96.07
21449;BME280;10885;52.830;13.788;2023-08-31T21:47:55;100700.44;;;11.93;96.32
21449;BME280;10885;52.830;13.788;2023-08-31T21:53:02;100703.63;;;11.89;96.41
21449;BME280;10885;52.830;13.788;2023-08-31T21:58:05;100708.84;;;11.90;96.92
